createdAt,value
2018-04-08T00:02:04.380Z,15.40
2018-04-08T00:04:33.511Z,15.88
2018-04-08T00:07:02.671Z,15.50
2018-04-08T00:09:32.134Z,15.98
2018-04-08T00:12:01.266Z,15.98
2018-04-08T00:14:30.470Z,17.00
2018-04-08T00:16:59.938Z,16.20
2018-04-08T00:19:29.220Z,16.62
2018-04-08T00:21:58.338Z,16.25
2018-04-08T00:24:27.566Z,16.10
2018-04-08T00:26:56.700Z,15.98
2018-04-08T00:29:25.822Z,13.85
2018-04-08T00:31:55.014Z,15.15
2018-04-08T00:34:24.131Z,15.98
2018-04-08T00:36:53.348Z,16.60
2018-04-08T00:39:22.815Z,15.35
2018-04-08T00:41:51.935Z,14.43
2018-04-08T00:44:21.088Z,15.02
2018-04-08T00:46:50.223Z,15.85
2018-04-08T00:49:19.350Z,15.30
2018-04-08T00:51:48.473Z,16.40
2018-04-08T00:54:23.774Z,16.65
2018-04-08T00:56:52.898Z,15.80
2018-04-08T00:59:22.107Z,15.48
2018-04-08T01:01:51.516Z,16.58
2018-04-08T01:04:20.702Z,16.00
2018-04-08T01:06:49.819Z,16.90
2018-04-08T01:09:19.331Z,18.42
2018-04-08T01:11:48.452Z,17.00
2018-04-08T01:14:17.604Z,17.80
2018-04-08T01:16:47.027Z,17.70
2018-04-08T01:19:16.160Z,17.77
2018-04-08T01:21:45.307Z,17.92
2018-04-08T01:24:14.822Z,18.40
2018-04-08T01:26:43.954Z,17.50
2018-04-08T01:29:13.067Z,17.60
2018-04-08T01:31:42.519Z,18.70
2018-04-08T01:34:11.641Z,18.25
2018-04-08T01:36:40.809Z,18.58
2018-04-08T01:39:10.211Z,17.27
2018-04-08T01:41:39.338Z,18.73
2018-04-08T01:44:08.476Z,19.23
2018-04-08T01:46:38.066Z,17.77
2018-04-08T01:49:07.191Z,18.75
2018-04-08T01:51:36.306Z,18.67
2018-04-08T01:54:05.537Z,18.92
2018-04-08T01:56:34.653Z,20.37
2018-04-08T01:59:03.791Z,20.50
2018-04-08T02:01:32.919Z,19.75
2018-04-08T02:04:02.031Z,20.95
2018-04-08T02:06:31.160Z,21.23
2018-04-08T02:09:00.593Z,20.00
2018-04-08T02:11:29.722Z,20.23
2018-04-08T02:13:58.838Z,21.33
2018-04-08T02:16:27.964Z,20.77
2018-04-08T02:18:57.085Z,20.35
2018-04-08T02:21:26.296Z,21.95
2018-04-08T02:23:55.775Z,21.98
2018-04-08T02:26:24.891Z,21.08
2018-04-08T02:28:54.006Z,19.90
2018-04-08T02:31:23.458Z,23.38
2018-04-08T02:33:52.576Z,22.95
2018-04-08T02:36:21.804Z,22.62
2018-04-08T02:38:50.936Z,23.23
2018-04-08T02:41:20.060Z,23.90
2018-04-08T02:43:49.191Z,23.77
2018-04-08T02:46:18.643Z,22.30
2018-04-08T02:48:47.765Z,22.05
2018-04-08T02:51:16.895Z,23.27
2018-04-08T02:53:46.032Z,23.45
2018-04-08T02:56:15.157Z,22.33
2018-04-08T02:58:44.274Z,22.33
2018-04-08T03:01:13.744Z,24.95
2018-04-08T03:03:42.860Z,24.75
2018-04-08T03:06:12.001Z,24.35
2018-04-08T03:08:41.137Z,24.55
2018-04-08T03:11:10.262Z,25.27
2018-04-08T03:13:39.389Z,25.67
2018-04-08T03:16:08.818Z,26.08
2018-04-08T03:18:37.959Z,29.12
2018-04-08T03:21:07.079Z,28.90
2018-04-08T03:23:36.210Z,28.52
2018-04-08T03:26:05.327Z,29.65
2018-04-08T03:28:34.443Z,29.17
2018-04-08T03:31:03.579Z,27.87
2018-04-08T03:33:32.707Z,28.00
2018-04-08T03:36:01.910Z,30.55
2018-04-08T03:38:31.035Z,28.85
2018-04-08T03:41:00.181Z,29.17
2018-04-08T03:43:29.318Z,29.08
2018-04-08T03:45:58.775Z,29.40
2018-04-08T03:48:27.894Z,27.10
2018-04-08T03:50:57.025Z,28.38
2018-04-08T03:53:26.293Z,28.52
2018-04-08T03:55:55.412Z,29.00
2018-04-08T03:58:24.535Z,30.15
2018-04-08T04:00:53.922Z,28.50
2018-04-08T04:03:23.144Z,30.83
2018-04-08T04:05:52.258Z,31.05
2018-04-08T04:08:21.395Z,31.67
2018-04-08T04:10:50.509Z,30.37
2018-04-08T04:13:19.632Z,30.15
2018-04-08T04:15:49.043Z,31.15
2018-04-08T04:18:24.140Z,31.00
2018-04-08T04:20:59.331Z,30.42
2018-04-08T04:23:34.327Z,31.62
2018-04-08T04:26:19.151Z,31.90
2018-04-08T04:28:48.919Z,31.92
2018-04-08T04:31:18.035Z,31.37
2018-04-08T04:33:47.526Z,31.60
2018-04-08T04:36:16.635Z,32.50
2018-04-08T04:38:45.771Z,32.55
2018-04-08T04:41:14.905Z,33.58
2018-04-08T04:43:44.028Z,31.87
2018-04-08T04:46:13.143Z,34.10
2018-04-08T04:48:42.595Z,36.60
2018-04-08T04:51:11.766Z,37.05
2018-04-08T04:53:40.892Z,35.80
2018-04-08T04:56:10.430Z,34.67
2018-04-08T04:58:39.553Z,36.45
2018-04-08T05:01:08.670Z,35.28
2018-04-08T05:03:37.827Z,35.83
2018-04-08T05:06:06.938Z,37.20
2018-04-08T05:08:36.067Z,35.75
2018-04-08T05:11:05.443Z,36.13
2018-04-08T05:13:34.573Z,34.50
2018-04-08T05:16:03.774Z,35.63
2018-04-08T05:18:32.916Z,35.17
2018-04-08T05:21:02.035Z,33.90
2018-04-08T05:23:31.159Z,33.58
2018-04-08T05:26:00.671Z,33.45
2018-04-08T05:28:29.810Z,35.60
2018-04-08T05:30:58.938Z,33.33
2018-04-08T05:33:28.067Z,34.92
2018-04-08T05:35:57.191Z,34.50
2018-04-08T05:38:26.315Z,33.35
2018-04-08T05:40:55.749Z,31.80
2018-04-08T05:43:24.982Z,32.70
2018-04-08T05:45:54.100Z,33.58
2018-04-08T05:48:23.342Z,33.13
2018-04-08T05:50:52.459Z,32.85
2018-04-08T05:53:21.621Z,33.53
2018-04-08T05:55:51.130Z,34.25
2018-04-08T05:58:20.265Z,33.30
2018-04-08T06:00:49.387Z,32.30
2018-04-08T06:03:18.746Z,31.05
2018-04-08T06:05:47.874Z,31.98
2018-04-08T06:08:17.003Z,31.85
2018-04-08T06:10:46.148Z,31.37
2018-04-08T06:13:15.264Z,31.80
2018-04-08T06:15:44.387Z,30.17
2018-04-08T06:18:13.555Z,29.70
2018-04-08T06:20:42.674Z,29.98
2018-04-08T06:23:11.807Z,29.15
2018-04-08T06:25:40.938Z,29.23
2018-04-08T06:28:10.061Z,27.77
2018-04-08T06:30:39.190Z,28.83
2018-04-08T06:33:08.356Z,27.02
2018-04-08T06:35:37.479Z,25.67
2018-04-08T06:38:06.598Z,25.15
2018-04-08T06:40:36.071Z,27.35
2018-04-08T06:43:05.199Z,25.25
2018-04-08T06:45:34.350Z,27.35
2018-04-08T06:48:03.787Z,25.62
2018-04-08T06:50:32.911Z,27.17
2018-04-08T06:53:02.032Z,26.77
2018-04-08T06:55:31.563Z,26.20
2018-04-08T06:58:00.695Z,24.98
2018-04-08T07:00:29.816Z,24.23
2018-04-08T07:02:58.976Z,25.48
2018-04-08T07:05:28.107Z,23.45
2018-04-08T07:07:57.239Z,24.52
2018-04-08T07:10:26.387Z,24.05
2018-04-08T07:12:55.532Z,21.87
2018-04-08T07:15:24.660Z,22.60
2018-04-08T07:17:53.793Z,22.60
2018-04-08T07:20:22.931Z,22.85
2018-04-08T07:22:52.058Z,22.10
2018-04-08T07:25:21.200Z,23.55
2018-04-08T07:27:51.006Z,22.90
2018-04-08T07:30:20.146Z,23.20
2018-04-08T07:32:49.282Z,22.10
2018-04-08T07:35:18.427Z,23.85
2018-04-08T07:37:47.551Z,21.80
2018-04-08T07:40:16.710Z,21.60
2018-04-08T07:42:45.839Z,20.23
2018-04-08T07:45:14.964Z,19.50
2018-04-08T07:47:44.108Z,20.57
2018-04-08T07:50:13.287Z,20.57
2018-04-08T07:52:42.411Z,19.40
2018-04-08T07:55:11.564Z,19.20
2018-04-08T07:57:40.817Z,18.40
2018-04-08T08:00:09.944Z,18.47
2018-04-08T08:02:39.380Z,18.67
2018-04-08T08:05:08.507Z,18.80
2018-04-08T08:07:37.639Z,19.07
2018-04-08T08:10:07.942Z,17.70
2018-04-08T08:12:37.076Z,18.80
2018-04-08T08:15:06.269Z,18.00
2018-04-08T08:17:35.802Z,18.80
2018-04-08T08:20:04.924Z,18.13
2018-04-08T08:22:34.044Z,17.97
2018-04-08T08:25:03.183Z,18.40
2018-04-08T08:27:32.309Z,15.83
2018-04-08T08:30:01.436Z,17.53
2018-04-08T08:32:30.884Z,17.20
2018-04-08T08:35:00.011Z,16.00
2018-04-08T08:37:29.133Z,18.23
2018-04-08T08:39:58.670Z,15.40
2018-04-08T08:42:27.909Z,15.53
2018-04-08T08:44:57.027Z,13.73
2018-04-08T08:47:26.300Z,13.17
2018-04-08T08:49:55.432Z,12.87
2018-04-08T08:52:24.602Z,12.13
2018-04-08T08:54:53.765Z,13.43
2018-04-08T08:57:22.930Z,12.43
2018-04-08T08:59:52.054Z,12.40
2018-04-08T09:02:21.281Z,11.50
2018-04-08T09:04:50.411Z,10.87
2018-04-08T09:07:19.539Z,12.33
2018-04-08T09:09:48.768Z,11.40
2018-04-08T09:12:17.902Z,12.37
2018-04-08T09:14:47.049Z,12.53
2018-04-08T09:17:16.176Z,12.97
2018-04-08T09:19:47.118Z,14.10
2018-04-08T09:22:21.955Z,16.03
2018-04-08T09:24:54.747Z,14.13
2018-04-08T09:27:23.887Z,14.37
2018-04-08T09:29:53.028Z,13.97
2018-04-08T09:32:22.146Z,14.17
2018-04-08T09:34:51.286Z,13.97
2018-04-08T09:37:20.420Z,13.67
2018-04-08T09:39:49.571Z,14.00
2018-04-08T09:42:18.784Z,13.10
2018-04-08T09:44:47.914Z,12.50
2018-04-08T09:47:17.075Z,12.90
2018-04-08T09:49:46.237Z,12.10
2018-04-08T09:52:15.355Z,12.80
2018-04-08T09:54:44.501Z,11.80
2018-04-08T09:57:13.653Z,11.87
2018-04-08T09:59:42.803Z,14.13
2018-04-08T10:02:30.707Z,12.70
2018-04-08T10:04:59.871Z,12.70
2018-04-08T10:07:28.998Z,13.10
2018-04-08T10:09:58.122Z,13.23
2018-04-08T10:12:27.252Z,13.27
2018-04-08T10:14:56.381Z,13.40
2018-04-08T10:17:25.535Z,13.30
2018-04-08T10:19:54.719Z,14.47
2018-04-08T10:22:23.835Z,14.10
2018-04-08T10:24:53.386Z,14.87
2018-04-08T10:27:22.496Z,14.33
2018-04-08T10:29:51.631Z,15.00
2018-04-08T10:32:21.134Z,14.77
2018-04-08T10:34:56.368Z,14.33
2018-04-08T10:37:25.623Z,13.60
2018-04-08T10:39:54.750Z,13.77
2018-04-08T10:42:23.869Z,15.80
2018-04-08T10:44:53.067Z,14.57
2018-04-08T10:47:22.204Z,15.10
2018-04-08T10:49:51.380Z,14.33
2018-04-08T10:52:20.527Z,13.37
2018-04-08T10:54:49.670Z,13.60
2018-04-08T10:57:18.794Z,13.40
2018-04-08T10:59:47.940Z,13.83
2018-04-08T11:02:17.346Z,13.73
2018-04-08T11:04:46.504Z,13.63
2018-04-08T11:07:15.593Z,14.43
2018-04-08T11:09:44.711Z,14.20
2018-04-08T11:12:13.876Z,14.27
2018-04-08T11:14:43.011Z,15.37
2018-04-08T11:17:12.144Z,15.23
2018-04-08T11:19:43.543Z,14.53
2018-04-08T11:22:12.673Z,15.33
2018-04-08T11:24:41.804Z,15.30
2018-04-08T11:27:11.180Z,14.47
2018-04-08T11:29:40.303Z,13.87
2018-04-08T11:32:09.427Z,14.40
2018-04-08T11:34:38.965Z,15.50
2018-04-08T11:37:08.099Z,15.60
2018-04-08T11:39:37.231Z,15.50
2018-04-08T11:42:06.647Z,16.20
2018-04-08T11:44:35.770Z,17.30
2018-04-08T11:47:04.890Z,16.37
2018-04-08T11:49:34.300Z,15.07
2018-04-08T11:52:03.416Z,15.10
2018-04-08T11:54:32.548Z,15.30
2018-04-08T11:57:02.039Z,16.20
2018-04-08T11:59:31.179Z,16.20
2018-04-08T12:02:00.399Z,15.50
2018-04-08T12:04:29.828Z,16.10
2018-04-08T12:06:58.983Z,16.23
2018-04-08T12:09:28.095Z,14.83
2018-04-08T12:11:57.257Z,17.00
2018-04-08T12:14:26.378Z,16.00
2018-04-08T12:16:55.507Z,16.20
2018-04-08T12:19:24.738Z,15.83
2018-04-08T12:21:53.876Z,14.23
2018-04-08T12:24:23.002Z,13.33
2018-04-08T12:26:53.117Z,13.47
2018-04-08T12:29:22.349Z,14.70
2018-04-08T12:31:51.465Z,16.00
2018-04-08T12:34:20.930Z,14.03
2018-04-08T12:36:50.145Z,13.50
2018-04-08T12:39:19.272Z,14.17
2018-04-08T12:41:48.428Z,14.50
2018-04-08T12:44:17.578Z,15.93
2018-04-08T12:46:46.713Z,16.10
2018-04-08T12:49:16.210Z,16.30
2018-04-08T12:51:45.457Z,15.40
2018-04-08T12:54:14.576Z,10.50
2018-04-08T12:56:43.828Z,9.60
2018-04-08T12:59:12.947Z,10.77
2018-04-08T13:01:42.059Z,10.03
2018-04-08T13:04:12.205Z,8.70
2018-04-08T13:06:41.332Z,9.60
2018-04-08T13:09:10.451Z,9.50
2018-04-08T13:11:39.901Z,9.60
2018-04-08T13:14:09.049Z,10.73
2018-04-08T13:16:38.156Z,9.90
2018-04-08T13:19:07.284Z,9.97
2018-04-08T13:21:36.455Z,10.90
2018-04-08T13:24:05.575Z,11.30
2018-04-08T13:26:34.731Z,11.63
2018-04-08T13:29:04.568Z,10.23
2018-04-08T13:31:33.692Z,12.33
2018-04-08T13:34:02.836Z,11.10
2018-04-08T13:36:31.971Z,13.80
2018-04-08T13:39:01.087Z,13.97
2018-04-08T13:41:30.318Z,13.40
2018-04-08T13:43:59.442Z,10.77
2018-04-08T13:46:28.559Z,11.23
2018-04-08T13:48:57.707Z,11.67
2018-04-08T13:51:26.828Z,10.80
2018-04-08T13:53:55.965Z,10.43
2018-04-08T13:56:25.095Z,13.17
2018-04-08T13:58:54.235Z,19.97
2018-04-08T14:01:23.373Z,24.60
2018-04-08T14:03:52.512Z,28.27
2018-04-08T14:06:21.639Z,28.10
2018-04-08T14:08:50.791Z,26.73
2018-04-08T14:11:20.294Z,26.10
2018-04-08T14:13:49.411Z,27.70
2018-04-08T14:16:18.531Z,25.93
2018-04-08T14:18:48.007Z,29.30
2018-04-08T14:21:17.171Z,26.80
2018-04-08T14:23:46.306Z,26.33
2018-04-08T14:26:15.831Z,28.20
2018-04-08T14:28:44.963Z,26.67
2018-04-08T14:31:14.136Z,27.53
2018-04-08T14:33:43.344Z,28.10
2018-04-08T14:36:12.471Z,27.80
2018-04-08T14:38:41.611Z,27.37
2018-04-08T14:41:10.761Z,26.40
2018-04-08T14:43:39.886Z,27.07
2018-04-08T14:46:09.003Z,28.47
2018-04-08T14:48:38.169Z,26.90
2018-04-08T14:51:07.284Z,28.27
2018-04-08T14:53:36.424Z,29.20
2018-04-08T14:56:05.913Z,26.27
2018-04-08T14:58:35.034Z,27.03
2018-04-08T15:01:04.174Z,27.30
2018-04-08T15:03:33.683Z,26.60
2018-04-08T15:06:02.812Z,25.77
2018-04-08T15:08:31.934Z,27.63
2018-04-08T15:11:01.380Z,27.70
2018-04-08T15:13:30.504Z,28.00
2018-04-08T15:15:59.630Z,27.53
2018-04-08T15:18:29.033Z,28.67
2018-04-08T15:20:58.164Z,27.10
2018-04-08T15:23:27.296Z,28.53
2018-04-08T15:25:56.435Z,29.20
2018-04-08T15:28:25.566Z,27.03
2018-04-08T15:30:54.686Z,28.83
2018-04-08T15:33:23.901Z,27.73
2018-04-08T15:35:53.017Z,26.30
2018-04-08T15:38:22.631Z,26.33
2018-04-08T15:40:51.974Z,26.73
2018-04-08T15:43:21.094Z,24.80
2018-04-08T15:45:50.235Z,24.80
2018-04-08T15:48:19.470Z,26.73
2018-04-08T15:50:48.584Z,25.87
2018-04-08T15:53:17.707Z,24.10
2018-04-08T15:55:46.847Z,24.37
2018-04-08T15:58:15.987Z,26.80
2018-04-08T16:00:45.116Z,26.40
2018-04-08T16:03:14.624Z,24.70
2018-04-08T16:05:43.851Z,27.80
2018-04-08T16:08:12.976Z,26.00
2018-04-08T16:10:42.431Z,24.30
2018-04-08T16:13:11.649Z,23.83
2018-04-08T16:15:40.827Z,22.93
2018-04-08T16:18:09.971Z,23.30
2018-04-08T16:20:39.109Z,22.93
2018-04-08T16:23:08.235Z,23.63
2018-04-08T16:25:37.379Z,21.73
2018-04-08T16:28:06.527Z,23.07
2018-04-08T16:30:35.644Z,21.53
2018-04-08T16:33:05.060Z,21.70
2018-04-08T16:35:34.188Z,22.10
2018-04-08T16:38:03.308Z,23.10
2018-04-08T16:40:32.448Z,21.17
2018-04-08T16:43:01.601Z,22.60
2018-04-08T16:45:30.738Z,22.83
2018-04-08T16:47:59.893Z,23.80
2018-04-08T16:50:29.015Z,22.10
2018-04-08T16:52:58.283Z,23.30
2018-04-08T16:55:27.436Z,22.70
2018-04-08T16:57:57.455Z,22.73
2018-04-08T17:00:26.582Z,24.07
2018-04-08T17:02:55.978Z,23.70
2018-04-08T17:05:25.115Z,23.40
2018-04-08T17:07:54.278Z,22.43
2018-04-08T17:10:23.403Z,23.63
2018-04-08T17:12:52.519Z,25.20
2018-04-08T17:15:21.695Z,23.87
2018-04-08T17:17:51.155Z,24.23
2018-04-08T17:20:20.304Z,25.87
2018-04-08T17:22:49.429Z,25.17
2018-04-08T17:25:18.857Z,25.50
2018-04-08T17:27:48.011Z,23.90
2018-04-08T17:30:17.152Z,25.00
2018-04-08T17:32:46.551Z,24.90
2018-04-08T17:35:15.700Z,25.90
2018-04-08T17:37:44.839Z,25.60
2018-04-08T17:40:13.984Z,25.60
2018-04-08T17:42:43.115Z,26.80
2018-04-08T17:45:12.285Z,26.43
2018-04-08T17:47:41.450Z,27.77
2018-04-08T17:50:10.586Z,27.93
2018-04-08T17:52:39.729Z,26.70
2018-04-08T17:55:08.880Z,27.80
2018-04-08T17:57:38.007Z,27.50
2018-04-08T18:00:07.237Z,26.40
2018-04-08T18:02:36.363Z,27.03
2018-04-08T18:05:05.498Z,28.27
2018-04-08T18:07:34.616Z,26.17
2018-04-08T18:10:03.764Z,24.90
2018-04-08T18:12:32.886Z,25.93
2018-04-08T18:15:02.054Z,27.13
2018-04-08T18:17:31.460Z,26.10
2018-04-08T18:20:00.613Z,25.73
2018-04-08T18:22:29.747Z,26.00
2018-04-08T18:24:58.905Z,25.87
2018-04-08T18:27:28.038Z,23.77
2018-04-08T18:29:57.162Z,24.03
2018-04-08T18:32:26.403Z,24.97
2018-04-08T18:34:55.518Z,25.00
2018-04-08T18:37:24.651Z,26.77
2018-04-08T18:39:53.802Z,25.07
2018-04-08T18:42:22.925Z,26.20
2018-04-08T18:44:52.068Z,25.77
2018-04-08T18:47:21.271Z,25.40
2018-04-08T18:49:50.493Z,28.57
2018-04-08T18:52:19.630Z,27.53
2018-04-08T18:54:48.780Z,27.90
2018-04-08T18:57:17.941Z,29.40
2018-04-08T18:59:47.072Z,28.77
2018-04-08T19:02:16.284Z,26.33
2018-04-08T19:04:45.429Z,28.80
2018-04-08T19:07:14.644Z,28.83
2018-04-08T19:09:43.801Z,29.30
2018-04-08T19:12:12.935Z,30.17
2018-04-08T19:14:47.802Z,30.30
2018-04-08T19:17:22.672Z,31.17
2018-04-08T19:19:52.527Z,33.38
2018-04-08T19:22:21.711Z,30.40
2018-04-08T19:24:50.877Z,31.47
2018-04-08T19:27:25.724Z,31.55
2018-04-08T19:29:54.859Z,33.80
2018-04-08T19:32:24.006Z,33.90
2018-04-08T19:34:53.237Z,36.00
2018-04-08T19:37:28.866Z,34.37
2018-04-08T19:39:58.355Z,36.92
2018-04-08T19:42:27.483Z,39.90
2018-04-08T19:44:56.677Z,41.37
2018-04-08T19:47:25.862Z,38.78
2018-04-08T19:49:55.048Z,34.22
2018-04-08T19:52:24.237Z,34.50
2018-04-08T19:54:53.460Z,33.30
2018-04-08T19:57:22.636Z,34.20
2018-04-08T19:59:51.780Z,37.63
2018-04-08T20:02:21.034Z,39.60
2018-04-08T20:04:50.165Z,38.70
2018-04-08T20:07:19.312Z,39.78
2018-04-08T20:09:48.485Z,34.80
2018-04-08T20:12:17.628Z,34.27
2018-04-08T20:14:46.784Z,32.45
2018-04-08T20:17:15.957Z,32.67
2018-04-08T20:19:45.130Z,31.95
2018-04-08T20:22:14.246Z,31.85
2018-04-08T20:24:43.643Z,31.87
2018-04-08T20:27:12.775Z,31.42
2018-04-08T20:29:41.915Z,32.17
2018-04-08T20:32:11.423Z,30.33
2018-04-08T20:34:40.607Z,30.60
2018-04-08T20:37:09.848Z,31.15
2018-04-08T20:39:39.296Z,31.17
2018-04-08T20:42:08.517Z,30.62
2018-04-08T20:44:37.709Z,32.05
2018-04-08T20:47:07.169Z,32.00
2018-04-08T20:49:37.587Z,32.45
2018-04-08T20:52:06.940Z,32.45
2018-04-08T20:54:36.069Z,33.92
2018-04-08T20:57:06.075Z,31.98
2018-04-08T20:59:35.222Z,32.38
2018-04-08T21:02:04.346Z,33.60
2018-04-08T21:04:33.463Z,33.15
2018-04-08T21:07:02.612Z,31.50
2018-04-08T21:09:31.838Z,31.45
2018-04-08T21:12:00.967Z,30.85
2018-04-08T21:14:30.510Z,31.83
2018-04-08T21:16:59.640Z,32.33
2018-04-08T21:19:28.779Z,31.37
2018-04-08T21:21:58.206Z,32.60
2018-04-08T21:24:27.383Z,34.10
2018-04-08T21:26:56.459Z,32.50
2018-04-08T21:29:25.728Z,32.47
2018-04-08T21:31:54.864Z,33.88
2018-04-08T21:34:23.999Z,33.75
2018-04-08T21:36:53.554Z,33.72
2018-04-08T21:39:22.686Z,33.97
2018-04-08T21:41:51.812Z,34.03
2018-04-08T21:44:21.282Z,34.58
2018-04-08T21:46:50.431Z,35.17
2018-04-08T21:49:19.527Z,33.80
2018-04-08T21:51:48.671Z,33.08
2018-04-08T21:54:17.791Z,35.88
2018-04-08T21:56:46.919Z,34.15
2018-04-08T21:59:16.064Z,32.40
2018-04-08T22:01:45.188Z,33.97
2018-04-08T22:04:14.330Z,33.40
2018-04-08T22:06:43.479Z,33.13
2018-04-08T22:09:12.595Z,33.53
2018-04-08T22:11:41.724Z,33.50
2018-04-08T22:14:10.868Z,33.80
2018-04-08T22:16:39.987Z,33.33
2018-04-08T22:19:09.113Z,32.95
2018-04-08T22:21:38.277Z,32.58
2018-04-08T22:24:07.523Z,32.80
2018-04-08T22:26:36.656Z,32.38
2018-04-08T22:29:05.790Z,34.88
2018-04-08T22:31:34.980Z,35.03
2018-04-08T22:34:04.119Z,34.50
2018-04-08T22:36:33.250Z,34.03
2018-04-08T22:39:02.385Z,33.42
2018-04-08T22:41:31.526Z,34.42
2018-04-08T22:44:00.659Z,35.10
2018-04-08T22:46:29.787Z,36.40
2018-04-08T22:49:04.679Z,32.70
2018-04-08T22:51:34.003Z,36.10
2018-04-08T22:54:03.123Z,38.15
2018-04-08T22:56:32.615Z,36.90
2018-04-08T22:59:01.748Z,37.42
2018-04-08T23:01:30.868Z,36.13
2018-04-08T23:04:00.010Z,36.70
2018-04-08T23:06:29.123Z,37.13
2018-04-08T23:08:58.250Z,37.13
2018-04-08T23:11:27.733Z,36.90
2018-04-08T23:13:56.855Z,37.90
2018-04-08T23:16:25.972Z,37.53
2018-04-08T23:18:55.370Z,36.42
2018-04-08T23:21:24.496Z,36.60
2018-04-08T23:23:53.720Z,36.08
2018-04-08T23:26:23.232Z,36.53
2018-04-08T23:28:52.352Z,37.88
2018-04-08T23:31:21.515Z,37.28
2018-04-08T23:33:50.661Z,37.72
2018-04-08T23:36:19.801Z,36.67
2018-04-08T23:38:48.918Z,35.65
2018-04-08T23:41:18.059Z,37.08
2018-04-08T23:43:47.181Z,38.80
2018-04-08T23:46:16.395Z,38.67
2018-04-08T23:48:45.865Z,38.15
2018-04-08T23:51:14.992Z,37.30
2018-04-08T23:53:44.122Z,36.25
2018-04-08T23:56:13.507Z,38.00
2018-04-08T23:58:42.650Z,38.20
